Time;durP1;ratioP1;P1;durP2;ratioP2;P2;SDS_P1;SDS_P2;PMS_P1;PMS_P2;Temp;Humidity;BMP_temperature;BMP_pressure;BME280_temperature;BME280_humidity;BME280_pressure;Samples;Min_cycle;Max_cycle;Signal;HPM_P1;HPM_P2
2021/07/14 00:01:59;;;;;;;2.03;1.60;;;15.60;73.40;;;;;;4957813;28;97239;-53
2021/07/14 00:04:31;;;;;;;4.40;1.80;;;15.70;73.40;;;;;;5001762;28;95293;-50
2021/07/14 00:07:02;;;;;;;;;;;15.70;73.80;;;;;;4995574;28;103528;-55
2021/07/14 00:09:32;;;;;;;2.97;1.40;;;15.70;74.00;;;;;;4999420;28;95983;-55
2021/07/14 00:12:04;;;;;;;2.88;1.77;;;15.80;73.90;;;;;;4999796;28;95912;-55
2021/07/14 00:17:23;;;;;;;2.20;1.83;;;15.90;73.80;;;;;;4993924;28;95996;-57
2021/07/14 00:22:43;;;;;;;2.22;1.40;;;16.00;73.50;;;;;;4996400;28;96217;-58
2021/07/14 00:25:14;;;;;;;1.83;1.70;;;16.10;73.40;;;;;;4996674;28;95771;-58
2021/07/14 00:27:49;;;;;;;1.65;1.42;;;16.10;73.50;;;;;;4980068;28;95422;-56
2021/07/14 00:30:26;;;;;;;2.38;1.70;;;16.10;73.40;;;;;;4995993;28;96559;-58
2021/07/14 00:32:58;;;;;;;3.63;1.80;;;16.20;73.40;;;;;;4997817;28;101766;-54
2021/07/14 00:35:30;;;;;;;2.45;2.25;;;16.20;73.30;;;;;;4999425;28;95658;-60
2021/07/14 00:38:03;;;;;;;1.85;1.75;;;16.30;73.20;;;;;;4997863;28;95355;-60
2021/07/14 00:40:35;;;;;;;2.63;2.17;;;16.30;73.10;;;;;;4996584;28;96029;-60
2021/07/14 00:43:07;;;;;;;2.10;1.95;;;16.30;72.90;;;;;;4993354;28;96012;-59
2021/07/14 00:45:37;;;;;;;2.78;2.08;;;16.30;73.00;;;;;;4990666;28;96114;-59
2021/07/14 00:48:13;;;;;;;1.85;1.75;;;16.30;72.90;;;;;;4993413;28;95508;-58
2021/07/14 00:50:45;;;;;;;2.03;1.90;;;16.40;72.80;;;;;;4999646;28;96851;-60
2021/07/14 00:53:15;;;;;;;2.55;1.50;;;16.40;72.80;;;;;;4988932;28;99261;-59
2021/07/14 00:55:46;;;;;;;1.63;1.52;;;16.40;72.60;;;;;;4999909;28;96314;-58
2021/07/14 00:58:17;;;;;;;;;;;16.40;72.70;;;;;;5007143;27;96038;-57
2021/07/14 01:00:49;;;;;;;1.40;1.30;;;16.40;72.50;;;;;;4993800;28;95887;-58
2021/07/14 01:03:23;;;;;;;3.47;1.83;;;16.40;72.30;;;;;;4996414;28;96286;-59
2021/07/14 01:05:55;;;;;;;2.67;1.48;;;16.50;72.20;;;;;;4978046;28;96862;-57
2021/07/14 01:08:44;;;;;;;1.38;1.27;;;16.50;72.70;;;;;;4996953;28;95776;-57
2021/07/14 01:11:19;;;;;;;1.73;1.50;;;16.60;72.80;;;;;;4982329;28;95857;-55
2021/07/14 01:14:35;;;;;;;2.10;1.40;;;16.60;72.90;;;;;;4994048;28;96074;-54
2021/07/14 01:17:11;;;;;;;3.30;1.38;;;16.60;73.10;;;;;;4994182;28;95758;-59
2021/07/14 01:20:12;;;;;;;2.47;1.50;;;16.60;73.20;;;;;;4999548;28;96145;-58
2021/07/14 01:23:05;;;;;;;1.00;1.00;;;16.70;73.50;;;;;;5000218;28;96801;-57
2021/07/14 01:25:57;;;;;;;1.90;0.90;;;16.70;73.50;;;;;;4998269;28;95895;-57
2021/07/14 01:28:32;;;;;;;1.50;1.40;;;16.70;73.50;;;;;;4999479;28;96679;-58
2021/07/14 01:31:04;;;;;;;1.98;1.05;;;16.80;73.60;;;;;;4987239;28;95367;-60
2021/07/14 01:33:41;;;;;;;3.15;1.63;;;16.70;73.00;;;;;;4998728;28;97883;-61
2021/07/14 01:36:17;;;;;;;2.67;1.52;;;16.80;73.20;;;;;;4996636;28;95938;-61
2021/07/14 01:38:48;;;;;;;2.50;1.20;;;16.70;73.10;;;;;;4999180;28;96110;-59
2021/07/14 01:41:21;;;;;;;2.90;1.25;;;16.70;73.00;;;;;;4997242;28;99245;-58
2021/07/14 01:43:55;;;;;;;3.90;1.38;;;16.70;72.80;;;;;;4999996;28;96925;-59
2021/07/14 01:46:31;;;;;;;5.95;1.75;;;16.70;72.90;;;;;;4984663;28;96007;-58
2021/07/14 01:49:12;;;;;;;2.28;1.55;;;16.70;72.90;;;;;;4991202;28;95481;-59
2021/07/14 01:51:48;;;;;;;1.45;0.75;;;16.80;73.10;;;;;;4994354;28;95811;-55
2021/07/14 01:54:23;;;;;;;2.15;1.20;;;16.80;72.90;;;;;;4996823;28;96167;-53
2021/07/14 01:56:56;;;;;;;1.30;1.20;;;16.90;72.60;;;;;;4997831;28;95910;-53
2021/07/14 01:59:33;;;;;;;1.30;1.20;;;16.90;72.20;;;;;;4999728;28;96056;-56
2021/07/14 02:02:05;;;;;;;1.58;1.27;;;17.00;72.10;;;;;;4993967;28;95953;-56
2021/07/14 02:04:40;;;;;;;1.30;1.20;;;17.00;72.20;;;;;;4976773;28;99026;-57
2021/07/14 02:07:15;;;;;;;2.50;1.25;;;17.00;72.30;;;;;;4993496;28;97012;-53
2021/07/14 02:09:47;;;;;;;1.20;1.10;;;17.10;72.40;;;;;;4999350;28;95317;-55
2021/07/14 02:12:24;;;;;;;2.25;1.48;;;17.10;72.40;;;;;;4979647;28;95502;-57
2021/07/14 02:15:10;;;;;;;2.45;1.33;;;17.10;72.40;;;;;;4981358;28;98023;-58
2021/07/14 02:17:57;;;;;;;3.00;1.65;;;17.10;72.20;;;;;;4995856;28;95488;-56
2021/07/14 02:20:28;;;;;;;2.13;1.80;;;17.20;72.20;;;;;;5010141;28;96187;-56
2021/07/14 02:23:00;;;;;;;2.07;1.73;;;17.20;72.00;;;;;;4990613;28;97195;-59
2021/07/14 02:25:32;;;;;;;2.22;1.63;;;17.20;71.00;;;;;;4999642;28;96210;-58
2021/07/14 02:28:04;;;;;;;1.55;1.38;;;17.20;70.90;;;;;;4996992;28;96422;-60
2021/07/14 02:30:35;;;;;;;2.17;1.98;;;17.20;71.30;;;;;;4995213;28;95399;-58
2021/07/14 02:33:11;;;;;;;1.55;1.42;;;17.20;71.40;;;;;;4998116;28;96156;-57
2021/07/14 02:35:47;;;;;;;3.17;1.80;;;17.20;71.00;;;;;;5000801;28;98015;-58
2021/07/14 02:38:24;;;;;;;1.80;1.70;;;17.20;70.30;;;;;;5006396;27;97157;-57
2021/07/14 02:41:23;;;;;;;2.10;1.90;;;17.20;70.90;;;;;;4997419;28;95778;-58
2021/07/14 02:44:01;;;;;;;1.80;1.70;;;17.20;70.80;;;;;;4993381;28;95993;-57
2021/07/14 02:46:36;;;;;;;1.70;1.60;;;17.20;70.70;;;;;;4990073;28;97224;-57
2021/07/14 02:49:10;;;;;;;3.65;1.80;;;17.20;70.70;;;;;;4989348;28;96546;-57
2021/07/14 02:51:45;;;;;;;1.90;1.75;;;17.20;70.80;;;;;;4999375;28;97227;-56
2021/07/14 02:54:24;;;;;;;1.90;1.80;;;17.30;70.70;;;;;;5010432;27;99204;-58
2021/07/14 02:57:02;;;;;;;1.98;1.70;;;17.30;70.80;;;;;;5000401;28;95991;-59
2021/07/14 02:59:36;;;;;;;1.40;1.30;;;17.30;70.90;;;;;;4982268;28;96964;-58
2021/07/14 03:02:08;;;;;;;1.45;1.30;;;17.30;70.90;;;;;;4972500;28;95903;-56
2021/07/14 03:04:50;;;;;;;1.35;1.20;;;17.30;71.10;;;;;;5001166;28;95274;-54
2021/07/14 03:07:28;;;;;;;1.30;1.20;;;17.30;71.30;;;;;;5003898;28;95905;-55
2021/07/14 03:09:59;;;;;;;1.15;1.05;;;17.30;71.40;;;;;;4993684;28;95862;-59
2021/07/14 03:12:31;;;;;;;0.98;0.90;;;17.40;71.50;;;;;;4997060;28;96102;-57
2021/07/14 03:15:10;;;;;;;1.48;1.30;;;17.40;71.60;;;;;;5030425;27;96365;-55
2021/07/14 03:17:42;;;;;;;0.90;0.90;;;17.40;71.60;;;;;;5003156;28;95935;-54
2021/07/14 03:20:16;;;;;;;0.80;0.80;;;17.50;71.30;;;;;;5002576;28;95873;-55
2021/07/14 03:22:50;;;;;;;0.85;0.85;;;17.50;71.50;;;;;;5004971;28;96259;-53
2021/07/14 03:25:23;;;;;;;0.80;0.80;;;17.50;71.80;;;;;;5002935;28;96068;-53
2021/07/14 03:27:55;;;;;;;1.42;0.93;;;17.50;71.90;;;;;;5001801;28;97198;-53
2021/07/14 03:30:26;;;;;;;1.20;0.90;;;17.50;72.00;;;;;;4978141;28;96194;-52
2021/07/14 03:32:58;;;;;;;0.70;0.70;;;17.50;72.00;;;;;;5004847;28;95863;-53
2021/07/14 03:35:30;;;;;;;1.27;0.90;;;17.60;72.00;;;;;;5002713;28;95786;-54
2021/07/14 03:38:03;;;;;;;1.05;0.90;;;17.60;72.10;;;;;;5005626;28;96951;-55
2021/07/14 03:40:37;;;;;;;1.10;1.00;;;17.60;72.10;;;;;;4983846;28;95923;-56
2021/07/14 03:43:09;;;;;;;0.90;0.90;;;17.60;72.10;;;;;;4985576;28;95943;-57
2021/07/14 03:45:44;;;;;;;0.73;0.73;;;17.60;72.10;;;;;;4992666;27;96023;-57
2021/07/14 03:48:16;;;;;;;0.65;0.63;;;17.70;72.30;;;;;;4998567;28;97104;-52
2021/07/14 03:50:50;;;;;;;0.80;0.80;;;17.70;72.20;;;;;;5001884;28;96495;-57
2021/07/14 03:53:23;;;;;;;1.05;0.93;;;17.80;72.40;;;;;;5006395;28;96245;-56
2021/07/14 03:55:54;;;;;;;0.68;0.68;;;17.80;72.30;;;;;;5003643;28;96281;-56
2021/07/14 03:58:29;;;;;;;0.70;0.70;;;17.80;72.30;;;;;;4997843;28;96509;-58
2021/07/14 04:01:01;;;;;;;0.85;0.80;;;17.80;72.20;;;;;;4993277;28;96217;-55
2021/07/14 04:03:31;;;;;;;;;;;17.90;72.20;;;;;;5002816;28;95945;-56
2021/07/14 04:06:07;;;;;;;0.50;0.50;;;17.90;72.20;;;;;;4998281;28;96277;-55
2021/07/14 04:08:46;;;;;;;0.40;0.40;;;17.90;72.10;;;;;;5002283;28;96498;-53
2021/07/14 04:11:17;;;;;;;0.60;0.60;;;18.00;72.20;;;;;;4998876;28;96003;-59
2021/07/14 04:13:48;;;;;;;0.77;0.60;;;17.80;69.60;;;;;;5015681;28;96126;-58
2021/07/14 04:16:21;;;;;;;0.50;0.50;;;17.60;69.30;;;;;;4991592;28;97063;-57
2021/07/14 04:18:52;;;;;;;0.63;0.55;;;17.50;70.30;;;;;;4996044;28;96461;-53
2021/07/14 04:21:25;;;;;;;0.40;0.40;;;17.60;70.40;;;;;;4990213;28;96307;-52
2021/07/14 04:23:57;;;;;;;0.90;0.68;;;17.60;70.10;;;;;;5000512;28;96009;-57
2021/07/14 04:26:27;;;;;;;;;;;17.70;70.10;;;;;;4997889;28;96126;-57
2021/07/14 04:28:57;;;;;;;0.88;0.88;;;17.70;70.00;;;;;;5002830;28;96496;-52
2021/07/14 04:31:28;;;;;;;1.02;0.63;;;17.70;70.10;;;;;;4994200;28;96610;-51
2021/07/14 04:34:01;;;;;;;0.60;0.45;;;17.80;70.00;;;;;;4997651;28;96864;-54
2021/07/14 04:36:34;;;;;;;0.40;0.40;;;17.80;70.00;;;;;;4990093;28;96167;-49
2021/07/14 04:39:07;;;;;;;1.00;0.85;;;17.80;69.80;;;;;;4997225;28;95890;-52
2021/07/14 04:41:41;;;;;;;0.47;0.47;;;17.90;69.80;;;;;;4997420;28;95935;-52
2021/07/14 04:44:18;;;;;;;1.17;0.50;;;17.90;69.70;;;;;;5001097;28;95951;-50
2021/07/14 04:46:48;;;;;;;0.40;0.40;;;17.90;69.60;;;;;;4991213;28;98534;-50
2021/07/14 04:49:21;;;;;;;0.40;0.40;;;17.90;69.60;;;;;;4994603;28;97211;-52
2021/07/14 04:51:52;;;;;;;0.30;0.30;;;17.90;69.60;;;;;;4988406;28;96296;-53
2021/07/14 04:54:25;;;;;;;0.73;0.57;;;17.90;69.60;;;;;;4999798;28;96615;-59
2021/07/14 04:56:55;;;;;;;1.20;1.10;;;17.90;69.60;;;;;;5001487;28;95953;-57
2021/07/14 04:59:26;;;;;;;1.30;1.20;;;17.80;69.40;;;;;;5000021;28;96498;-56
2021/07/14 05:01:58;;;;;;;2.25;1.85;;;17.80;69.40;;;;;;4993323;28;96128;-57
2021/07/14 05:04:30;;;;;;;1.75;1.65;;;17.80;70.10;;;;;;4994593;28;96541;-53
2021/07/14 05:07:03;;;;;;;1.70;1.60;;;17.80;70.00;;;;;;4997711;28;95831;-57
2021/07/14 05:09:35;;;;;;;2.05;1.70;;;17.90;70.40;;;;;;4993967;28;96426;-53
2021/07/14 05:12:06;;;;;;;3.00;2.20;;;17.90;70.30;;;;;;5000128;28;95950;-55
2021/07/14 05:14:38;;;;;;;2.50;2.30;;;18.00;70.40;;;;;;4996538;28;96959;-57
2021/07/14 05:17:10;;;;;;;2.00;1.90;;;18.10;70.50;;;;;;4996363;28;95336;-56
2021/07/14 05:19:41;;;;;;;2.35;2.20;;;18.10;70.50;;;;;;4998869;28;96853;-56
2021/07/14 05:22:13;;;;;;;1.70;1.60;;;18.10;70.40;;;;;;5000980;28;95418;-57
2021/07/14 05:24:43;;;;;;;2.30;1.80;;;18.10;70.40;;;;;;4974569;28;95331;-58
2021/07/14 05:27:14;;;;;;;2.28;1.75;;;18.10;70.40;;;;;;4998429;28;95806;-54
2021/07/14 05:29:44;;;;;;;2.03;1.92;;;18.20;70.30;;;;;;4997229;28;95884;-57
2021/07/14 05:32:14;;;;;;;2.13;1.95;;;18.20;70.30;;;;;;4995627;28;95456;-58
2021/07/14 05:34:46;;;;;;;4.75;1.88;;;18.30;70.30;;;;;;4996585;28;95418;-56
2021/07/14 05:37:18;;;;;;;2.20;1.50;;;18.30;70.20;;;;;;4995489;28;96267;-58
2021/07/14 05:39:49;;;;;;;1.63;1.52;;;18.30;70.00;;;;;;4997175;28;97120;-59
2021/07/14 05:42:21;;;;;;;;;;;18.30;70.10;;;;;;5000167;28;96603;-55
2021/07/14 05:44:53;;;;;;;1.58;1.42;;;18.30;70.00;;;;;;5014170;27;97276;-57
2021/07/14 05:47:25;;;;;;;1.63;1.52;;;18.40;70.20;;;;;;4992814;28;96388;-57
2021/07/14 05:49:54;;;;;;;;;;;18.40;70.60;;;;;;4995879;28;96615;-58
2021/07/14 05:52:29;;;;;;;1.60;1.50;;;18.50;70.80;;;;;;4995730;28;97346;-55
2021/07/14 05:55:00;;;;;;;2.22;1.40;;;18.50;70.70;;;;;;4976213;28;95933;-54
2021/07/14 05:57:33;;;;;;;2.15;1.35;;;18.50;70.50;;;;;;5016188;28;96181;-54
2021/07/14 06:00:09;;;;;;;3.75;1.70;;;18.50;70.40;;;;;;4991632;28;97200;-58
2021/07/14 06:02:39;;;;;;;2.35;1.20;;;18.50;70.40;;;;;;4999608;28;95790;-55
2021/07/14 06:05:12;;;;;;;1.20;1.10;;;18.40;70.40;;;;;;4997735;28;95769;-57
2021/07/14 06:07:43;;;;;;;1.20;1.10;;;18.40;70.40;;;;;;5014841;28;95763;-58
2021/07/14 06:10:16;;;;;;;1.30;1.20;;;18.40;70.40;;;;;;4990687;28;95956;-54
2021/07/14 06:12:47;;;;;;;1.75;1.33;;;18.30;70.40;;;;;;4996979;28;95928;-60
2021/07/14 06:15:19;;;;;;;1.15;1.15;;;18.30;70.30;;;;;;4994461;28;97100;-56
2021/07/14 06:17:49;;;;;;;;;;;18.30;70.30;;;;;;5000553;28;95774;-55
2021/07/14 06:20:22;;;;;;;2.65;1.15;;;18.30;70.50;;;;;;4998023;28;96935;-55
2021/07/14 06:22:53;;;;;;;3.42;1.40;;;18.20;70.30;;;;;;4998890;28;95872;-51
2021/07/14 06:25:23;;;;;;;2.28;1.88;;;18.10;70.30;;;;;;4978595;28;95386;-55
2021/07/14 06:27:53;;;;;;;1.55;1.45;;;18.00;70.50;;;;;;4995034;28;95867;-57
2021/07/14 06:30:24;;;;;;;2.28;1.65;;;18.00;70.70;;;;;;4998103;28;95972;-55
2021/07/14 06:32:54;;;;;;;2.13;1.63;;;17.90;70.70;;;;;;5000659;28;104826;-54
2021/07/14 06:35:26;;;;;;;1.50;1.40;;;17.90;70.80;;;;;;5003774;28;96152;-54
2021/07/14 06:37:57;;;;;;;2.67;1.90;;;17.80;70.90;;;;;;4999825;28;95617;-57
2021/07/14 06:40:29;;;;;;;1.52;1.42;;;17.80;71.10;;;;;;4983293;28;100297;-58
2021/07/14 06:43:01;;;;;;;1.52;1.30;;;17.80;71.20;;;;;;4995926;28;95694;-59
2021/07/14 06:45:32;;;;;;;1.70;1.60;;;17.90;71.40;;;;;;4994480;28;96319;-57
2021/07/14 06:48:04;;;;;;;2.70;1.58;;;17.90;71.40;;;;;;4997512;28;96274;-57
2021/07/14 06:50:34;;;;;;;3.22;1.83;;;17.90;71.40;;;;;;5002684;28;96584;-57
2021/07/14 06:53:05;;;;;;;4.63;2.28;;;17.90;71.40;;;;;;5000580;28;95874;-55
2021/07/14 06:55:37;;;;;;;3.50;2.15;;;17.90;71.40;;;;;;5002479;28;96161;-57
2021/07/14 06:58:07;;;;;;;2.10;1.77;;;17.90;71.40;;;;;;4999387;28;95746;-57
2021/07/14 07:00:39;;;;;;;2.08;1.65;;;17.90;71.30;;;;;;4992771;28;95895;-59
2021/07/14 07:03:09;;;;;;;2.28;1.70;;;18.00;71.50;;;;;;4999724;28;95811;-56
2021/07/14 07:05:40;;;;;;;2.63;2.15;;;18.00;71.40;;;;;;4984760;28;96416;-57
2021/07/14 07:08:13;;;;;;;3.15;2.00;;;18.00;71.40;;;;;;5000309;28;95688;-53
2021/07/14 07:10:46;;;;;;;2.70;1.90;;;17.90;71.30;;;;;;5003271;28;97162;-55
2021/07/14 07:13:18;;;;;;;3.65;2.10;;;17.90;71.40;;;;;;4999029;28;98470;-57
2021/07/14 07:15:53;;;;;;;2.50;1.90;;;18.00;71.30;;;;;;4996316;28;96168;-56
2021/07/14 07:18:24;;;;;;;2.97;1.60;;;18.00;71.50;;;;;;4996642;28;95978;-57
2021/07/14 07:21:01;;;;;;;2.05;1.48;;;18.00;71.40;;;;;;5002775;28;96140;-55
2021/07/14 07:23:32;;;;;;;3.40;1.65;;;18.00;71.40;;;;;;4997250;28;95886;-54
2021/07/14 07:26:04;;;;;;;1.50;1.30;;;18.00;71.50;;;;;;5000185;28;95763;-57
2021/07/14 07:28:40;;;;;;;2.35;1.55;;;18.00;71.20;;;;;;4997680;28;95942;-56
2021/07/14 07:31:12;;;;;;;1.52;1.42;;;18.00;71.30;;;;;;4971608;28;96682;-56
2021/07/14 07:33:47;;;;;;;1.50;1.27;;;18.00;71.30;;;;;;4991721;28;95868;-56
2021/07/14 07:36:20;;;;;;;4.20;1.45;;;18.00;71.40;;;;;;4999996;28;96276;-59
2021/07/14 07:38:55;;;;;;;3.08;1.73;;;18.00;71.70;;;;;;4998867;28;96919;-59
2021/07/14 07:41:29;;;;;;;1.73;1.50;;;17.90;71.60;;;;;;5002146;28;95898;-54
2021/07/14 07:44:00;;;;;;;4.72;1.30;;;17.90;71.70;;;;;;4999557;28;95633;-58
2021/07/14 07:46:30;;;;;;;3.28;1.60;;;17.90;71.70;;;;;;4994681;28;96847;-55
2021/07/14 07:49:04;;;;;;;2.65;1.58;;;17.80;71.60;;;;;;4989867;28;95821;-56
2021/07/14 07:51:36;;;;;;;1.63;1.50;;;17.80;71.40;;;;;;4996914;28;96825;-59
2021/07/14 07:54:07;;;;;;;3.50;1.60;;;17.70;72.00;;;;;;4981329;28;95963;-58
2021/07/14 07:56:38;;;;;;;1.65;1.38;;;17.60;72.60;;;;;;5001598;28;96605;-56
2021/07/14 07:59:09;;;;;;;3.50;1.52;;;17.60;73.00;;;;;;4999859;28;96274;-56
2021/07/14 08:01:40;;;;;;;8.02;1.58;;;17.70;72.90;;;;;;4996193;28;97129;-55
2021/07/14 08:04:10;;;;;;;1.75;1.40;;;17.70;72.80;;;;;;4999679;28;95631;-49
2021/07/14 08:06:41;;;;;;;1.48;1.38;;;17.70;72.50;;;;;;4989328;28;95762;-54
2021/07/14 08:09:12;;;;;;;2.92;1.80;;;17.80;72.50;;;;;;4997029;28;96060;-53
2021/07/14 08:11:43;;;;;;;2.53;1.25;;;17.80;72.40;;;;;;4996987;28;95939;-57
2021/07/14 08:14:16;;;;;;;1.65;1.35;;;17.90;72.10;;;;;;4999549;28;95949;-49
2021/07/14 08:16:47;;;;;;;2.28;1.30;;;17.80;71.80;;;;;;4994820;28;96688;-52
2021/07/14 08:19:21;;;;;;;1.48;1.27;;;17.90;71.70;;;;;;4994371;28;95858;-49
2021/07/14 08:21:52;;;;;;;2.58;1.20;;;17.90;71.60;;;;;;4995897;28;96207;-49
2021/07/14 08:24:22;;;;;;;1.50;1.40;;;17.90;71.50;;;;;;4995905;28;95976;-52
2021/07/14 08:26:53;;;;;;;1.33;1.23;;;17.90;71.50;;;;;;4996444;28;99682;-50
2021/07/14 08:29:39;;;;;;;1.67;1.10;;;17.90;71.40;;;;;;5002373;28;98709;-49
2021/07/14 08:32:10;;;;;;;1.88;1.48;;;17.90;71.40;;;;;;4973910;28;98642;-51
2021/07/14 08:34:41;;;;;;;2.47;1.60;;;17.90;71.30;;;;;;4997074;28;95829;-49
2021/07/14 08:37:13;;;;;;;1.95;1.30;;;17.90;71.20;;;;;;4995428;28;95800;-52
2021/07/14 08:39:45;;;;;;;1.25;1.15;;;17.90;71.20;;;;;;4995402;28;95269;-56
2021/07/14 08:42:18;;;;;;;3.20;1.60;;;17.80;71.10;;;;;;4988623;28;96609;-50
2021/07/14 08:44:51;;;;;;;2.05;1.45;;;17.80;71.10;;;;;;4998234;28;97098;-52
2021/07/14 08:47:25;;;;;;;2.30;1.65;;;17.80;71.00;;;;;;4990628;27;95468;-56
2021/07/14 08:49:55;;;;;;;;;;;17.80;71.00;;;;;;4997653;28;96929;-51
2021/07/14 08:52:26;;;;;;;1.40;1.30;;;17.80;71.00;;;;;;4975602;28;98036;-50
2021/07/14 08:54:57;;;;;;;2.85;1.85;;;17.80;71.00;;;;;;4998995;28;96028;-56
2021/07/14 08:57:28;;;;;;;3.13;1.42;;;17.80;71.00;;;;;;4992547;28;95894;-49
2021/07/14 08:59:58;;;;;;;;;;;17.80;71.00;;;;;;4996507;28;96196;-51
2021/07/14 09:02:28;;;;;;;2.20;1.70;;;17.80;71.00;;;;;;4990156;28;96588;-49
2021/07/14 09:04:59;;;;;;;2.28;1.42;;;17.80;70.90;;;;;;4999141;28;96162;-51
2021/07/14 09:07:31;;;;;;;3.13;1.50;;;17.70;70.90;;;;;;4994770;28;95690;-49
2021/07/14 09:10:06;;;;;;;1.95;1.73;;;17.70;70.90;;;;;;4998934;28;95855;-50
2021/07/14 09:12:45;;;;;;;2.13;1.90;;;17.70;70.90;;;;;;4974851;28;96470;-53
2021/07/14 09:15:21;;;;;;;2.58;1.85;;;17.70;70.90;;;;;;4987560;28;96135;-50
2021/07/14 09:17:53;;;;;;;1.90;1.70;;;17.70;70.90;;;;;;4994450;28;96235;-53
2021/07/14 09:20:34;;;;;;;1.92;1.33;;;17.70;70.80;;;;;;4996910;28;95844;-51
2021/07/14 09:23:13;;;;;;;1.40;1.27;;;17.70;70.90;;;;;;4996204;28;95983;-52
2021/07/14 09:25:47;;;;;;;3.10;1.75;;;17.70;70.90;;;;;;4997227;28;95909;-56
2021/07/14 09:28:19;;;;;;;2.03;1.73;;;17.60;70.90;;;;;;4996615;28;95382;-49
2021/07/14 09:31:10;;;;;;;2.05;1.50;;;17.60;70.80;;;;;;4990431;27;96987;-50
2021/07/14 09:33:43;;;;;;;2.78;1.67;;;17.70;70.90;;;;;;4995467;28;99136;-50
2021/07/14 09:36:15;;;;;;;2.17;1.83;;;17.60;70.80;;;;;;5010350;28;95790;-51
2021/07/14 09:38:47;;;;;;;1.52;1.40;;;17.60;70.80;;;;;;4994559;28;96359;-49
2021/07/14 09:41:19;;;;;;;1.73;1.55;;;17.60;70.70;;;;;;4998767;28;97103;-51
2021/07/14 09:43:49;;;;;;;2.42;1.63;;;17.60;70.70;;;;;;4996426;28;97121;-51
2021/07/14 09:46:20;;;;;;;3.58;2.00;;;17.70;70.80;;;;;;4988099;28;97274;-51
2021/07/14 09:48:53;;;;;;;2.58;2.22;;;17.60;70.70;;;;;;4991232;28;95967;-50
2021/07/14 09:51:24;;;;;;;3.47;2.13;;;17.60;70.70;;;;;;4999136;28;96201;-50
2021/07/14 09:53:56;;;;;;;1.65;1.52;;;17.60;70.70;;;;;;4994865;28;96792;-51
2021/07/14 09:56:33;;;;;;;1.60;1.50;;;17.60;70.70;;;;;;4997692;28;95786;-52
2021/07/14 09:59:08;;;;;;;2.50;1.80;;;17.60;70.60;;;;;;4993020;28;96037;-52
2021/07/14 10:01:45;;;;;;;3.28;1.70;;;17.60;70.60;;;;;;4993418;28;97237;-50
2021/07/14 10:04:32;;;;;;;1.88;1.58;;;17.60;70.60;;;;;;4980916;28;96670;-52
2021/07/14 10:07:24;;;;;;;1.42;1.30;;;17.60;70.60;;;;;;4997536;28;95813;-52
2021/07/14 10:09:57;;;;;;;2.05;1.48;;;17.60;70.60;;;;;;4999626;28;95793;-52
2021/07/14 10:12:35;;;;;;;1.88;1.33;;;17.60;70.60;;;;;;5001115;28;95711;-52
2021/07/14 10:15:09;;;;;;;1.60;1.50;;;17.50;70.60;;;;;;4993475;28;96364;-51
2021/07/14 10:17:46;;;;;;;1.40;1.30;;;17.50;70.90;;;;;;4997220;28;95815;-56
2021/07/14 10:20:25;;;;;;;2.47;1.30;;;17.30;71.10;;;;;;4989768;28;95886;-58
2021/07/14 10:23:03;;;;;;;2.05;1.58;;;17.20;71.20;;;;;;4993081;28;95930;-49
2021/07/14 10:25:36;;;;;;;1.35;1.25;;;17.20;71.50;;;;;;4992151;28;95831;-55
2021/07/14 10:28:09;;;;;;;1.63;1.17;;;17.20;71.50;;;;;;5027067;27;96128;-55
2021/07/14 10:30:41;;;;;;;1.52;1.42;;;17.10;71.60;;;;;;4999521;27;95921;-55
2021/07/14 10:33:12;;;;;;;1.60;1.40;;;17.10;71.60;;;;;;4995245;28;95688;-56
2021/07/14 10:35:44;;;;;;;;;;;17.10;71.70;;;;;;4997995;28;96507;-54
2021/07/14 10:38:22;;;;;;;1.75;1.42;;;17.10;71.70;;;;;;4995140;28;96033;-53
2021/07/14 10:40:56;;;;;;;1.17;1.08;;;17.10;71.80;;;;;;4995269;28;97707;-54
2021/07/14 10:43:30;;;;;;;1.45;1.10;;;17.00;71.80;;;;;;4992525;28;96096;-54
2021/07/14 10:46:23;;;;;;;1.65;1.27;;;17.00;71.80;;;;;;4983205;28;96064;-53
2021/07/14 10:48:56;;;;;;;1.63;1.38;;;17.00;71.80;;;;;;5002154;28;96059;-52
2021/07/14 10:51:30;;;;;;;1.95;1.20;;;17.00;71.90;;;;;;4992458;28;95723;-53
2021/07/14 10:54:10;;;;;;;1.73;1.42;;;17.00;72.10;;;;;;4992853;28;96005;-54
2021/07/14 10:56:47;;;;;;;1.20;1.10;;;16.90;72.10;;;;;;4992559;28;95968;-52
2021/07/14 10:59:23;;;;;;;2.05;1.42;;;16.90;72.00;;;;;;4993045;28;95987;-51
2021/07/14 11:01:58;;;;;;;1.08;0.98;;;16.90;72.10;;;;;;4989100;28;95855;-54
2021/07/14 11:04:29;;;;;;;2.20;1.70;;;16.90;72.10;;;;;;4994740;28;96002;-51
2021/07/14 11:07:07;;;;;;;1.33;1.23;;;16.80;72.10;;;;;;4994642;28;95918;-51
2021/07/14 11:09:48;;;;;;;1.33;1.02;;;16.90;72.20;;;;;;5025551;27;96370;-51
2021/07/14 11:12:38;;;;;;;2.42;1.70;;;16.80;72.10;;;;;;4994394;28;95342;-53
2021/07/14 11:15:12;;;;;;;4.75;3.50;;;16.80;72.30;;;;;;4986153;28;95842;-54
2021/07/14 11:17:44;;;;;;;6.03;3.45;;;16.80;73.00;;;;;;4994066;28;96529;-55
2021/07/14 11:20:15;;;;;;;6.80;4.25;;;16.80;73.10;;;;;;4999899;28;95985;-55
2021/07/14 11:22:52;;;;;;;5.43;4.40;;;16.80;73.90;;;;;;4990587;28;96895;-53
2021/07/14 11:25:27;;;;;;;5.60;4.03;;;16.70;73.50;;;;;;4999457;28;95336;-53
2021/07/14 11:28:09;;;;;;;4.93;4.43;;;16.70;73.40;;;;;;4993408;28;96359;-55
2021/07/14 11:31:08;;;;;;;4.53;3.63;;;16.70;73.40;;;;;;4995651;28;95910;-59
2021/07/14 11:33:41;;;;;;;4.50;3.70;;;16.70;73.50;;;;;;4990887;28;95736;-58
2021/07/14 11:36:13;;;;;;;6.45;4.38;;;16.70;73.50;;;;;;5000297;28;95973;-55
2021/07/14 11:38:53;;;;;;;5.55;4.18;;;16.60;73.50;;;;;;4995978;28;95845;-57
2021/07/14 11:41:36;;;;;;;5.22;3.90;;;16.60;73.50;;;;;;4998219;28;95807;-57
2021/07/14 11:44:08;;;;;;;6.28;4.63;;;16.60;73.60;;;;;;4991246;28;97143;-58
2021/07/14 11:46:39;;;;;;;5.68;3.97;;;16.60;73.60;;;;;;4987941;27;96009;-58
2021/07/14 11:49:09;;;;;;;5.27;3.83;;;16.50;73.60;;;;;;4994818;28;96945;-58
2021/07/14 11:51:41;;;;;;;4.15;3.55;;;16.50;73.60;;;;;;4999821;28;96013;-58
2021/07/14 11:54:24;;;;;;;5.15;4.07;;;16.50;73.60;;;;;;4995671;28;95824;-58
2021/07/14 11:56:54;;;;;;;4.90;3.95;;;16.60;73.70;;;;;;4999457;28;96283;-58
2021/07/14 11:59:29;;;;;;;4.82;4.05;;;16.50;73.90;;;;;;5010203;27;102727;-59
2021/07/14 12:02:07;;;;;;;3.53;3.17;;;16.50;73.90;;;;;;4991760;28;96455;-54
2021/07/14 12:04:40;;;;;;;4.40;3.75;;;16.50;74.00;;;;;;4995288;28;95819;-57
2021/07/14 12:07:16;;;;;;;5.47;3.92;;;16.50;73.90;;;;;;4998555;28;95802;-58
2021/07/14 12:09:47;;;;;;;4.70;3.63;;;16.50;73.90;;;;;;4998393;28;95937;-55
2021/07/14 12:12:22;;;;;;;;;;;16.50;73.90;;;;;;5000727;28;95435;-57
2021/07/14 12:14:54;;;;;;;4.63;3.88;;;16.40;73.90;;;;;;4998676;28;95492;-57
2021/07/14 12:17:27;;;;;;;5.50;4.45;;;16.40;73.90;;;;;;4991155;28;96013;-55
2021/07/14 12:20:00;;;;;;;7.35;3.75;;;16.40;74.00;;;;;;4997005;28;95865;-53
2021/07/14 12:22:33;;;;;;;6.90;4.60;;;16.40;74.00;;;;;;5001808;28;96173;-55
2021/07/14 12:25:15;;;;;;;5.43;3.80;;;16.40;74.00;;;;;;4980402;28;95984;-52
2021/07/14 12:27:47;;;;;;;5.55;4.28;;;16.40;74.00;;;;;;4999983;28;98011;-58
2021/07/14 12:30:23;;;;;;;5.35;3.35;;;16.40;74.00;;;;;;4992748;28;96436;-59
2021/07/14 12:32:56;;;;;;;4.35;3.45;;;16.30;74.00;;;;;;4997503;28;95776;-58
2021/07/14 12:35:31;;;;;;;4.65;3.80;;;16.30;74.00;;;;;;4990537;28;96243;-53
2021/07/14 12:38:06;;;;;;;4.50;3.33;;;16.30;74.00;;;;;;4997620;28;95804;-56
2021/07/14 12:40:41;;;;;;;3.40;3.03;;;16.30;74.00;;;;;;4995568;28;98173;-55
2021/07/14 12:43:30;;;;;;;3.40;3.10;;;16.30;74.10;;;;;;4997421;28;96152;-58
2021/07/14 12:46:02;;;;;;;4.28;3.47;;;16.30;74.10;;;;;;4988914;28;95470;-55
2021/07/14 12:48:33;;;;;;;4.28;3.17;;;16.30;74.10;;;;;;4988976;28;100352;-56
2021/07/14 12:51:04;;;;;;;4.20;2.88;;;16.30;74.10;;;;;;4989637;28;95765;-55
2021/07/14 12:53:34;;;;;;;4.15;3.60;;;16.30;74.00;;;;;;4993380;28;95863;-52
2021/07/14 12:56:04;;;;;;;3.80;3.40;;;16.30;74.10;;;;;;4978985;28;96740;-54
2021/07/14 12:58:34;;;;;;;4.38;3.15;;;16.20;74.10;;;;;;4997260;28;95917;-57
2021/07/14 13:01:07;;;;;;;5.03;3.05;;;16.20;74.10;;;;;;4991661;28;95851;-57
2021/07/14 13:03:38;;;;;;;4.18;3.42;;;16.20;74.10;;;;;;4999111;28;95438;-54
2021/07/14 13:06:10;;;;;;;3.75;2.83;;;16.20;74.20;;;;;;4996188;28;95928;-57
2021/07/14 13:08:41;;;;;;;3.60;2.95;;;16.20;74.30;;;;;;4978726;28;95738;-58
2021/07/14 13:11:13;;;;;;;3.83;3.13;;;16.20;74.30;;;;;;4996933;28;96844;-53
2021/07/14 13:13:48;;;;;;;3.40;2.80;;;16.20;74.20;;;;;;4998278;28;96616;-58
2021/07/14 13:16:26;;;;;;;3.20;2.85;;;16.20;74.20;;;;;;4993018;28;95891;-59
2021/07/14 13:19:00;;;;;;;3.17;2.58;;;16.10;74.20;;;;;;5001612;28;96064;-58
2021/07/14 13:21:33;;;;;;;3.95;2.50;;;16.30;74.20;;;;;;5000869;28;96230;-54
2021/07/14 13:24:07;;;;;;;3.00;2.35;;;16.40;74.70;;;;;;4995571;28;95355;-58
2021/07/14 13:26:39;;;;;;;2.92;2.65;;;16.50;74.70;;;;;;4997905;28;96045;-52
2021/07/14 13:29:11;;;;;;;2.88;2.45;;;16.50;74.70;;;;;;4997699;28;95370;-56
2021/07/14 13:31:42;;;;;;;2.55;2.35;;;16.50;74.60;;;;;;4993984;28;96126;-57